EPSY

Szczytno-Szymany International Airport

Poland
TAF EPSY 232030Z 2321/2406 29005KT 8000 BKN008 BECMG 2321/2323 SCT025
Issued Valid From Valid To
Apr-23 @ 20:30 UTC
(2 hours ago)
Apr-23 @ 21:00 UTC
(2 hours ago)
Apr-24 @ 06:00 UTC
(in 7 hours)
Apr-23 @ 21:00 to Apr-24 @ 06:00
TAF EPSY 232030Z 2321/2406 29005KT 8000 BKN008
Wind Visibility Clouds
290° at 5 knots 7,998 meters
  • Broken at 800' AGL
Becoming Apr-23 @ 21:00 to Apr-24 @ 06:00
BECMG 2321/2323 SCT025
Wind Visibility Clouds
290° at 5 knots 7,998 meters
  • Scattered at 2,500' AGL
TAF EPSY 232030Z 2321/2406 29005KT 8000 BKN008 BECMG 2321/2323 SCT025
Issued Apr-23 @ 20:30 UTC
(2 hours ago)
Valid From Apr-23 @ 21:00 UTC
(2 hours ago)
Valid To Apr-24 @ 06:00 UTC
(in 7 hours)
Apr-23 @ 21:00 - Apr-24 @ 06:00
Wind Visibility
290° at 5 knots 7,998 meters
Clouds
  • Broken at 800' AGL
Becoming Apr-23 @ 21:00 - Apr-24 @ 06:00
Wind Visibility
290° at 5 knots 7,998 meters
Clouds
  • Scattered at 2,500' AGL